createdAt,value
2019-06-08T00:01:20.808Z,59.07
2019-06-08T00:03:50.341Z,59.41
2019-06-08T00:06:20.694Z,59.64
2019-06-08T00:08:50.280Z,59.27
2019-06-08T00:11:19.497Z,59.54
2019-06-08T00:13:48.685Z,59.75
2019-06-08T00:16:17.835Z,59.67
2019-06-08T00:18:47.017Z,59.67
2019-06-08T00:21:17.549Z,59.79
2019-06-08T00:23:46.849Z,60.41
2019-06-08T00:26:16.105Z,60.19
2019-06-08T00:28:45.291Z,60.07
2019-06-08T00:31:15.340Z,60.00
2019-06-08T00:33:44.518Z,60.36
2019-06-08T00:36:14.767Z,60.30
2019-06-08T00:38:44.040Z,60.86
2019-06-08T00:41:13.221Z,60.65
2019-06-08T00:43:42.406Z,60.45
2019-06-08T00:46:11.581Z,60.77
2019-06-08T00:48:40.741Z,60.19
2019-06-08T00:51:09.972Z,60.28
2019-06-08T00:53:39.145Z,60.67
2019-06-08T00:56:08.332Z,60.13
2019-06-08T00:58:37.530Z,60.24
2019-06-08T01:01:06.783Z,60.44
2019-06-08T01:03:35.936Z,60.55
2019-06-08T01:06:05.152Z,59.85
2019-06-08T01:08:34.324Z,59.61
2019-06-08T01:11:03.564Z,59.70
2019-06-08T01:13:32.693Z,59.07
2019-06-08T01:16:01.838Z,59.07
2019-06-08T01:18:31.193Z,58.96
2019-06-08T01:21:00.346Z,58.84
2019-06-08T01:23:29.838Z,58.54
2019-06-08T01:25:59.043Z,58.28
2019-06-08T01:28:28.275Z,58.11
2019-06-08T01:30:57.462Z,58.00
2019-06-08T01:33:26.697Z,58.26
2019-06-08T01:35:55.812Z,57.99
2019-06-08T01:38:25.141Z,57.82
2019-06-08T01:40:54.391Z,57.36
2019-06-08T01:43:23.724Z,57.99
2019-06-08T01:45:52.940Z,57.16
2019-06-08T01:48:22.407Z,56.63
2019-06-08T01:50:51.672Z,56.94
2019-06-08T01:53:22.797Z,56.63
2019-06-08T01:55:52.113Z,56.52
2019-06-08T01:58:23.335Z,56.79
2019-06-08T02:00:52.534Z,56.61
2019-06-08T02:03:21.841Z,56.58
2019-06-08T02:05:51.131Z,55.81
2019-06-08T02:08:20.320Z,55.91
2019-06-08T02:10:49.506Z,56.29
2019-06-08T02:13:18.796Z,55.77
2019-06-08T02:15:48.105Z,55.27
2019-06-08T02:18:35.095Z,55.10
2019-06-08T02:20:50.068Z,55.32
2019-06-08T02:23:19.355Z,54.71
2019-06-08T02:25:48.626Z,55.38
2019-06-08T02:28:17.842Z,55.41
2019-06-08T02:30:47.256Z,54.88
2019-06-08T02:33:16.452Z,55.21
2019-06-08T02:35:45.619Z,54.95
2019-06-08T02:38:14.910Z,54.90
2019-06-08T02:40:44.187Z,54.88
2019-06-08T02:43:13.648Z,54.72
2019-06-08T02:45:42.918Z,54.43
2019-06-08T02:48:12.099Z,55.01
2019-06-08T02:50:54.711Z,54.83
2019-06-08T02:53:24.070Z,54.38
2019-06-08T02:55:53.523Z,54.87
2019-06-08T02:58:22.720Z,55.06
2019-06-08T03:00:53.507Z,54.85
2019-06-08T03:03:22.693Z,54.60
2019-06-08T03:05:52.467Z,54.60
2019-06-08T03:08:22.016Z,54.53
2019-06-08T03:10:54.857Z,54.55
2019-06-08T03:13:25.156Z,54.32
2019-06-08T03:15:54.935Z,54.43
2019-06-08T03:18:24.220Z,54.60
2019-06-08T03:20:53.446Z,54.54
2019-06-08T03:23:22.681Z,54.26
2019-06-08T03:25:53.308Z,54.47
2019-06-08T03:28:23.176Z,54.45
2019-06-08T03:30:54.915Z,54.62
2019-06-08T03:33:23.339Z,54.48
2019-06-08T03:35:57.857Z,54.63
2019-06-08T03:38:23.336Z,54.66
2019-06-08T03:40:52.518Z,54.48
2019-06-08T03:43:21.726Z,54.66
2019-06-08T03:45:50.920Z,54.12
2019-06-08T03:48:20.147Z,54.37
2019-06-08T03:50:49.321Z,54.51
2019-06-08T03:53:18.740Z,54.61
2019-06-08T03:55:47.889Z,54.96
2019-06-08T03:58:17.037Z,54.72
2019-06-08T04:00:47.063Z,54.07
2019-06-08T04:03:18.736Z,54.20
2019-06-08T04:05:47.919Z,54.58
2019-06-08T04:08:18.940Z,54.43
2019-06-08T04:10:50.127Z,54.60
2019-06-08T04:13:19.063Z,54.47
2019-06-08T04:15:50.184Z,54.66
2019-06-08T04:18:19.267Z,54.48
2019-06-08T04:20:49.365Z,54.52
2019-06-08T04:23:19.447Z,54.68
2019-06-08T04:25:50.442Z,54.58
2019-06-08T04:28:19.745Z,54.63
2019-06-08T04:30:49.844Z,54.61
2019-06-08T04:33:19.451Z,54.16
2019-06-08T04:35:50.632Z,54.92
2019-06-08T04:38:19.540Z,54.92
2019-06-08T04:40:50.164Z,54.76
2019-06-08T04:43:19.460Z,54.60
2019-06-08T04:45:49.897Z,54.37
2019-06-08T04:48:19.284Z,54.87
2019-06-08T04:50:49.848Z,54.77
2019-06-08T04:53:19.410Z,54.59
2019-06-08T04:55:49.291Z,54.07
2019-06-08T04:58:18.774Z,54.84
2019-06-08T05:00:50.244Z,54.86
2019-06-08T05:03:18.867Z,54.57
2019-06-08T05:05:49.903Z,54.66
2019-06-08T05:08:18.992Z,54.57
2019-06-08T05:10:49.716Z,54.84
2019-06-08T05:13:19.044Z,54.44
2019-06-08T05:15:50.055Z,54.45
2019-06-08T05:18:19.109Z,54.16
2019-06-08T05:20:50.843Z,55.17
2019-06-08T05:23:19.355Z,54.64
2019-06-08T05:25:49.351Z,54.55
2019-06-08T05:28:18.818Z,55.01
2019-06-08T05:30:48.003Z,54.82
2019-06-08T05:33:17.198Z,55.25
2019-06-08T05:35:47.556Z,54.93
2019-06-08T05:38:16.884Z,55.05
2019-06-08T05:40:46.086Z,55.23
2019-06-08T05:43:15.316Z,54.68
2019-06-08T05:45:45.706Z,54.95
2019-06-08T05:48:14.973Z,55.21
2019-06-08T05:50:56.854Z,55.65
2019-06-08T05:53:15.415Z,55.50
2019-06-08T05:55:45.890Z,55.74
2019-06-08T05:58:15.388Z,56.39
2019-06-08T06:00:44.556Z,56.60
2019-06-08T06:03:13.709Z,56.58
2019-06-08T06:05:42.955Z,56.53
2019-06-08T06:08:18.907Z,56.66
2019-06-08T06:10:44.687Z,56.81
2019-06-08T06:13:14.124Z,57.15
2019-06-08T06:15:45.324Z,56.72
2019-06-08T06:18:14.549Z,56.73
2019-06-08T06:20:45.270Z,56.52
2019-06-08T06:23:15.681Z,56.37
2019-06-08T06:25:45.402Z,56.49
2019-06-08T06:28:14.682Z,56.40
2019-06-08T06:30:44.251Z,55.83
2019-06-08T06:33:14.083Z,56.53
2019-06-08T06:35:43.802Z,56.11
2019-06-08T06:38:13.130Z,55.70
2019-06-08T06:40:43.836Z,55.90
2019-06-08T06:43:13.220Z,55.74
2019-06-08T06:45:44.148Z,55.14
2019-06-08T06:48:13.621Z,55.35
2019-06-08T06:50:44.294Z,55.13
2019-06-08T06:53:13.594Z,55.55
2019-06-08T06:55:42.904Z,55.68
2019-06-08T06:58:12.079Z,55.47
2019-06-08T07:00:41.224Z,56.04
2019-06-08T07:03:10.503Z,55.84
2019-06-08T07:05:39.658Z,56.41
2019-06-08T07:08:08.831Z,56.87
2019-06-08T07:10:38.049Z,57.27
2019-06-08T07:13:07.250Z,57.90
2019-06-08T07:15:41.609Z,57.85
2019-06-08T07:18:07.331Z,58.48
2019-06-08T07:20:36.560Z,58.80
2019-06-08T07:23:05.755Z,58.91
2019-06-08T07:25:34.939Z,59.43
2019-06-08T07:28:04.233Z,60.95
2019-06-08T07:30:33.503Z,61.64
2019-06-08T07:33:02.799Z,61.69
2019-06-08T07:35:32.077Z,62.60
2019-06-08T07:38:01.473Z,63.17
2019-06-08T07:40:30.713Z,63.43
2019-06-08T07:43:01.837Z,64.45
2019-06-08T07:45:31.153Z,65.56
2019-06-08T07:48:00.671Z,65.67
2019-06-08T07:50:29.948Z,64.82
2019-06-08T07:52:59.245Z,64.84
2019-06-08T07:55:28.487Z,64.99
2019-06-08T07:57:57.851Z,65.39
2019-06-08T08:00:27.072Z,66.66
2019-06-08T08:02:56.546Z,65.41
2019-06-08T08:05:25.735Z,65.56
2019-06-08T08:07:56.855Z,64.69
2019-06-08T08:10:27.638Z,65.05
2019-06-08T08:12:56.916Z,64.11
2019-06-08T08:15:27.804Z,64.01
2019-06-08T08:17:57.752Z,63.15
2019-06-08T08:20:27.025Z,63.27
2019-06-08T08:23:01.998Z,63.15
2019-06-08T08:25:29.202Z,61.89
2019-06-08T08:28:00.683Z,62.02
2019-06-08T08:30:29.708Z,62.51
2019-06-08T08:33:01.690Z,63.23
2019-06-08T08:35:29.905Z,63.74
2019-06-08T08:38:03.859Z,64.05
2019-06-08T08:40:30.676Z,63.18
2019-06-08T08:43:01.495Z,63.61
2019-06-08T08:45:31.101Z,63.52
2019-06-08T08:48:20.044Z,63.02
2019-06-08T08:50:31.528Z,63.18
2019-06-08T08:53:02.473Z,63.57
2019-06-08T08:55:31.914Z,61.84
2019-06-08T08:58:02.174Z,62.74
2019-06-08T09:00:31.475Z,62.01
2019-06-08T09:03:24.335Z,61.10
2019-06-08T09:05:31.681Z,60.81
2019-06-08T09:08:03.718Z,62.05
2019-06-08T09:10:33.292Z,62.22
2019-06-08T09:13:04.627Z,62.42
2019-06-08T09:15:33.524Z,63.03
2019-06-08T09:18:03.885Z,63.15
2019-06-08T09:20:33.259Z,63.23
2019-06-08T09:23:11.645Z,63.35
2019-06-08T09:25:33.575Z,63.01
2019-06-08T09:28:04.811Z,62.27
2019-06-08T09:30:33.873Z,61.44
2019-06-08T09:33:04.326Z,60.97
2019-06-08T09:35:33.643Z,59.95
2019-06-08T09:38:04.874Z,59.85
2019-06-08T09:40:34.446Z,60.69
2019-06-08T09:43:09.135Z,60.65
2019-06-08T09:45:34.908Z,60.99
2019-06-08T09:48:05.665Z,61.37
2019-06-08T09:50:35.258Z,60.62
2019-06-08T09:53:20.140Z,59.52
2019-06-08T09:55:38.163Z,58.42
2019-06-08T09:58:11.510Z,58.57
2019-06-08T10:00:37.993Z,57.71
2019-06-08T10:03:09.432Z,56.91
2019-06-08T10:05:40.315Z,56.84
2019-06-08T10:08:09.869Z,56.60
2019-06-08T10:10:39.286Z,55.20
2019-06-08T10:13:09.731Z,54.50
2019-06-08T10:15:39.512Z,52.95
2019-06-08T10:18:08.789Z,53.31
2019-06-08T10:20:38.441Z,52.82
2019-06-08T10:23:26.818Z,52.36
2019-06-08T10:25:38.891Z,51.58
2019-06-08T10:28:13.693Z,51.69
2019-06-08T10:30:39.192Z,51.21
2019-06-08T10:33:10.045Z,51.77
2019-06-08T10:35:39.426Z,51.32
2019-06-08T10:38:11.898Z,52.16
2019-06-08T10:41:04.782Z,52.29
2019-06-08T10:43:29.748Z,52.27
2019-06-08T10:46:02.866Z,52.45
2019-06-08T10:48:30.289Z,52.70
2019-06-08T10:51:03.398Z,53.53
2019-06-08T10:53:45.206Z,53.88
2019-06-08T10:56:03.450Z,53.38
2019-06-08T10:58:33.469Z,54.39
2019-06-08T11:01:05.787Z,56.51
2019-06-08T11:03:33.845Z,59.35
2019-06-08T11:06:04.444Z,60.21
2019-06-08T11:08:34.134Z,58.83
2019-06-08T11:11:04.917Z,59.30
2019-06-08T11:13:34.325Z,59.54
2019-06-08T11:16:04.434Z,61.18
2019-06-08T11:18:34.534Z,60.27
2019-06-08T11:21:05.813Z,59.84
2019-06-08T11:23:34.689Z,60.42
2019-06-08T11:26:12.823Z,60.21
2019-06-08T11:28:34.896Z,59.66
2019-06-08T11:31:04.111Z,58.24
2019-06-08T11:33:33.386Z,57.41
2019-06-08T11:36:06.117Z,56.89
2019-06-08T11:38:33.672Z,55.94
2019-06-08T11:41:04.576Z,56.57
2019-06-08T11:43:33.910Z,57.31
2019-06-08T11:46:04.639Z,57.88
2019-06-08T11:48:34.019Z,58.26
2019-06-08T11:51:04.664Z,56.26
2019-06-08T11:53:34.051Z,54.36
2019-06-08T11:56:04.714Z,54.29
2019-06-08T11:58:33.915Z,53.83
2019-06-08T12:01:09.448Z,53.66
2019-06-08T12:03:38.736Z,53.63
2019-06-08T12:06:10.480Z,53.56
2019-06-08T12:08:38.560Z,53.59
2019-06-08T12:11:15.744Z,53.79
2019-06-08T12:13:40.125Z,53.88
2019-06-08T12:16:15.876Z,53.86
2019-06-08T12:18:40.521Z,53.91
2019-06-08T12:21:11.434Z,54.62
2019-06-08T12:23:41.125Z,55.68
2019-06-08T12:26:10.541Z,56.37
2019-06-08T12:28:39.808Z,56.75
2019-06-08T12:31:12.078Z,56.86
2019-06-08T12:33:40.257Z,56.60
2019-06-08T12:36:13.613Z,55.98
2019-06-08T12:38:41.945Z,56.63
2019-06-08T12:41:12.713Z,55.32
2019-06-08T12:43:42.443Z,54.32
2019-06-08T12:46:13.440Z,53.38
2019-06-08T12:48:42.819Z,53.82
2019-06-08T12:51:13.669Z,53.68
2019-06-08T12:53:43.123Z,53.25
2019-06-08T12:56:14.742Z,54.06
2019-06-08T12:58:44.031Z,54.66
2019-06-08T13:01:14.559Z,56.01
2019-06-08T13:03:43.894Z,58.69
2019-06-08T13:06:14.067Z,62.02
2019-06-08T13:08:43.481Z,64.88
2019-06-08T13:11:13.868Z,65.56
2019-06-08T13:13:43.405Z,65.63
2019-06-08T13:16:12.764Z,65.76
2019-06-08T13:18:42.014Z,66.63
2019-06-08T13:21:23.420Z,67.06
2019-06-08T13:23:42.226Z,67.22
2019-06-08T13:26:13.791Z,69.20
2019-06-08T13:28:42.387Z,71.76
2019-06-08T13:31:14.261Z,74.24
2019-06-08T13:33:42.586Z,76.92
2019-06-08T13:36:12.353Z,77.07
2019-06-08T13:38:41.580Z,78.86
2019-06-08T13:41:10.951Z,79.75
2019-06-08T13:43:40.717Z,78.64
2019-06-08T13:46:09.923Z,76.15
2019-06-08T13:48:39.136Z,73.37
2019-06-08T13:51:11.844Z,70.63
2019-06-08T13:53:39.455Z,63.33
2019-06-08T13:56:08.714Z,58.99
2019-06-08T13:58:38.349Z,56.89
2019-06-08T14:01:09.960Z,54.87
2019-06-08T14:03:39.656Z,54.18
2019-06-08T14:06:10.383Z,54.18
2019-06-08T14:08:39.719Z,57.35
2019-06-08T14:11:08.966Z,55.58
2019-06-08T14:13:38.273Z,51.67
2019-06-08T14:16:11.119Z,55.06
2019-06-08T14:18:38.792Z,58.32
2019-06-08T14:21:08.136Z,68.75
2019-06-08T14:23:38.709Z,71.29
2019-06-08T14:26:08.522Z,72.10
2019-06-08T14:28:38.107Z,72.34
2019-06-08T14:31:10.588Z,69.04
2019-06-08T14:33:39.761Z,68.00
2019-06-08T14:36:09.233Z,67.25
2019-06-08T14:38:42.101Z,63.52
2019-06-08T14:41:09.754Z,61.05
2019-06-08T14:43:38.250Z,56.98
2019-06-08T14:46:08.058Z,54.66
2019-06-08T14:48:37.926Z,49.55
2019-06-08T14:51:08.562Z,50.14
2019-06-08T14:53:38.627Z,48.11
2019-06-08T14:56:08.887Z,45.88
2019-06-08T14:58:38.753Z,44.99
2019-06-08T15:01:08.264Z,47.46
2019-06-08T15:03:38.139Z,52.57
2019-06-08T15:06:08.223Z,54.62
2019-06-08T15:08:37.643Z,59.45
2019-06-08T15:11:08.099Z,68.50
2019-06-08T15:13:40.439Z,74.54
2019-06-08T15:16:08.829Z,71.00
2019-06-08T15:18:38.526Z,62.07
2019-06-08T15:21:08.072Z,58.57
2019-06-08T15:23:37.266Z,56.15
2019-06-08T15:26:20.481Z,52.10
2019-06-08T15:28:37.561Z,51.27
2019-06-08T15:31:08.475Z,49.01
2019-06-08T15:33:38.319Z,50.32
2019-06-08T15:36:08.509Z,48.03
2019-06-08T15:38:38.114Z,54.20
2019-06-08T15:41:07.814Z,56.76
2019-06-08T15:43:40.245Z,60.66
2019-06-08T15:46:08.754Z,60.90
2019-06-08T15:48:38.249Z,57.75
2019-06-08T15:51:07.945Z,54.91
2019-06-08T15:53:37.875Z,48.61
2019-06-08T15:56:08.560Z,46.20
2019-06-08T15:58:40.370Z,42.80
2019-06-08T16:01:09.040Z,42.20
2019-06-08T16:03:38.416Z,43.00
2019-06-08T16:06:07.772Z,41.94
2019-06-08T16:08:38.044Z,41.28
2019-06-08T16:11:07.521Z,38.91
2019-06-08T16:13:36.935Z,39.41
2019-06-08T16:16:06.219Z,38.08
2019-06-08T16:18:35.979Z,37.83
2019-06-08T16:21:07.406Z,37.06
2019-06-08T16:23:36.714Z,37.23
2019-06-08T16:26:05.977Z,37.57
2019-06-08T16:28:36.313Z,37.55
2019-06-08T16:31:05.736Z,37.51
2019-06-08T16:33:35.405Z,37.03
2019-06-08T16:36:04.669Z,36.39
2019-06-08T16:38:34.256Z,37.23
2019-06-08T16:41:03.650Z,37.68
2019-06-08T16:43:33.045Z,37.89
2019-06-08T16:46:02.410Z,37.53
2019-06-08T16:48:30.683Z,37.74
2019-06-08T16:50:59.279Z,36.58
2019-06-08T16:53:27.534Z,36.81
2019-06-08T16:55:55.861Z,37.32
2019-06-08T16:58:24.142Z,37.37
2019-06-08T17:00:52.403Z,36.53
2019-06-08T17:03:20.741Z,36.16
2019-06-08T17:05:49.012Z,35.65
2019-06-08T17:08:17.355Z,34.88
2019-06-08T17:10:45.616Z,35.86
2019-06-08T17:13:13.933Z,35.69
2019-06-08T17:15:43.153Z,39.71
2019-06-08T17:18:12.464Z,41.25
2019-06-08T17:20:41.722Z,42.84
2019-06-08T17:23:12.048Z,43.92
2019-06-08T17:25:41.509Z,44.73
2019-06-08T17:28:10.813Z,44.94
2019-06-08T17:30:41.412Z,42.70
2019-06-08T17:33:10.759Z,41.96
2019-06-08T17:35:40.080Z,44.11
2019-06-08T17:38:09.281Z,45.63
2019-06-08T17:40:38.550Z,45.85
2019-06-08T17:43:07.803Z,47.31
2019-06-08T17:45:38.389Z,47.36
2019-06-08T17:48:07.760Z,49.14
2019-06-08T17:50:37.007Z,50.20
2019-06-08T17:53:06.153Z,51.49
2019-06-08T17:55:35.305Z,53.02
2019-06-08T17:58:04.518Z,53.26
2019-06-08T18:00:33.795Z,53.91
2019-06-08T18:03:02.971Z,53.14
2019-06-08T18:05:32.172Z,52.03
2019-06-08T18:08:01.385Z,49.61
2019-06-08T18:10:30.816Z,49.97
2019-06-08T18:13:00.231Z,50.16
2019-06-08T18:15:29.421Z,49.98
2019-06-08T18:17:58.647Z,50.89
2019-06-08T18:20:28.412Z,50.85
2019-06-08T18:22:57.966Z,50.66
2019-06-08T18:25:27.887Z,50.23
2019-06-08T18:28:06.684Z,49.66
2019-06-08T18:30:28.301Z,48.26
2019-06-08T18:32:58.082Z,46.33
2019-06-08T18:35:29.682Z,46.28
2019-06-08T18:37:58.919Z,45.90
2019-06-08T18:40:28.325Z,45.80
2019-06-08T18:42:57.894Z,46.33
2019-06-08T18:45:27.618Z,46.81
2019-06-08T18:47:57.709Z,46.41
2019-06-08T18:50:28.754Z,47.54
2019-06-08T18:52:58.113Z,48.20
2019-06-08T18:55:27.927Z,48.23
2019-06-08T18:57:57.330Z,49.41
2019-06-08T19:00:50.001Z,51.11
2019-06-08T19:03:20.193Z,51.61
2019-06-08T19:05:50.526Z,51.58
2019-06-08T19:08:23.056Z,51.81
2019-06-08T19:10:52.407Z,53.02
2019-06-08T19:13:21.671Z,53.41
2019-06-08T19:15:52.995Z,54.34
2019-06-08T19:18:22.093Z,55.72
2019-06-08T19:20:53.580Z,55.83
2019-06-08T19:23:22.382Z,57.06
2019-06-08T19:25:51.606Z,56.96
2019-06-08T19:28:35.228Z,57.76
2019-06-08T19:30:51.989Z,58.38
2019-06-08T19:33:21.142Z,58.99
2019-06-08T19:35:53.704Z,59.42
2019-06-08T19:38:21.616Z,59.94
2019-06-08T19:40:50.987Z,59.83
2019-06-08T19:43:20.206Z,60.03
2019-06-08T19:45:51.927Z,60.91
2019-06-08T19:48:20.588Z,61.17
2019-06-08T19:50:53.805Z,60.92
2019-06-08T19:53:20.773Z,61.90
2019-06-08T19:55:53.923Z,61.86
2019-06-08T19:58:21.229Z,62.54
2019-06-08T20:00:54.452Z,62.47
2019-06-08T20:03:21.414Z,62.87
2019-06-08T20:05:52.078Z,63.20
2019-06-08T20:08:21.691Z,63.61
2019-06-08T20:10:51.034Z,64.13
2019-06-08T20:13:20.309Z,64.28
2019-06-08T20:15:55.173Z,64.74
2019-06-08T20:18:22.969Z,65.11
2019-06-08T20:20:54.144Z,65.72
2019-06-08T20:23:23.400Z,65.43
2019-06-08T20:25:53.411Z,65.35
2019-06-08T20:28:22.705Z,65.38
2019-06-08T20:30:52.697Z,65.78
2019-06-08T20:33:27.105Z,66.23
2019-06-08T20:35:58.400Z,66.07
2019-06-08T20:38:37.286Z,66.41
2019-06-08T20:40:58.103Z,66.28
2019-06-08T20:43:27.413Z,66.06
2019-06-08T20:45:57.501Z,65.31
2019-06-08T20:48:27.968Z,65.29
2019-06-08T20:50:57.369Z,64.91
2019-06-08T20:53:28.288Z,64.08
2019-06-08T20:56:00.008Z,64.52
2019-06-08T20:58:29.436Z,63.99
2019-06-08T21:00:58.669Z,64.20
2019-06-08T21:03:28.145Z,64.27
2019-06-08T21:05:58.229Z,64.69
2019-06-08T21:08:28.316Z,64.85
2019-06-08T21:10:58.811Z,65.39
2019-06-08T21:13:28.041Z,66.17
2019-06-08T21:16:00.527Z,66.80
2019-06-08T21:18:28.816Z,66.66
2019-06-08T21:20:58.270Z,66.44
2019-06-08T21:23:28.806Z,67.22
2019-06-08T21:26:00.060Z,67.81
2019-06-08T21:28:31.118Z,68.23
2019-06-08T21:31:02.025Z,68.98
2019-06-08T21:33:32.330Z,69.27
2019-06-08T21:36:04.937Z,69.32
2019-06-08T21:38:32.473Z,69.45
2019-06-08T21:41:02.945Z,69.96
2019-06-08T21:43:32.609Z,70.25
2019-06-08T21:46:02.048Z,70.01
2019-06-08T21:48:31.289Z,69.74
2019-06-08T21:51:01.729Z,69.89
2019-06-08T21:53:31.054Z,69.54
2019-06-08T21:56:00.217Z,69.62
2019-06-08T21:58:29.405Z,69.68
2019-06-08T22:01:00.910Z,69.47
2019-06-08T22:03:29.566Z,68.71
2019-06-08T22:06:00.103Z,68.24
2019-06-08T22:08:29.465Z,66.97
2019-06-08T22:10:59.434Z,66.55
2019-06-08T22:13:29.629Z,66.44
2019-06-08T22:16:01.973Z,66.21
2019-06-08T22:18:29.801Z,66.25
2019-06-08T22:20:59.870Z,66.04
2019-06-08T22:23:30.052Z,66.13
2019-06-08T22:26:00.757Z,66.26
2019-06-08T22:28:30.322Z,66.77
2019-06-08T22:31:01.496Z,66.55
2019-06-08T22:33:30.372Z,66.63
2019-06-08T22:35:59.534Z,66.51
2019-06-08T22:38:28.877Z,67.05
2019-06-08T22:41:00.006Z,67.27
2019-06-08T22:43:29.084Z,67.22
2019-06-08T22:46:00.163Z,67.12
2019-06-08T22:48:29.294Z,67.42
2019-06-08T22:51:01.422Z,67.24
2019-06-08T22:53:29.466Z,67.86
2019-06-08T22:56:01.097Z,67.49
2019-06-08T22:58:29.704Z,68.20
2019-06-08T23:01:01.324Z,68.01
2019-06-08T23:03:29.931Z,68.35
2019-06-08T23:06:02.272Z,68.35
2019-06-08T23:08:31.004Z,68.98
2019-06-08T23:11:02.015Z,68.87
2019-06-08T23:13:31.149Z,68.85
2019-06-08T23:16:02.519Z,69.04
2019-06-08T23:18:31.238Z,68.97
2019-06-08T23:21:02.456Z,69.31
2019-06-08T23:23:31.510Z,69.25
2019-06-08T23:26:02.506Z,69.64
2019-06-08T23:28:31.674Z,70.22
2019-06-08T23:31:13.739Z,70.04
2019-06-08T23:33:32.544Z,70.12
2019-06-08T23:36:33.691Z,70.44
2019-06-08T23:38:32.709Z,70.58
2019-06-08T23:41:02.248Z,70.90
2019-06-08T23:43:32.537Z,71.14
2019-06-08T23:46:04.007Z,71.65
2019-06-08T23:48:33.259Z,71.73
2019-06-08T23:51:02.443Z,71.93
2019-06-08T23:53:31.628Z,72.27
2019-06-08T23:56:02.247Z,72.31
2019-06-08T23:58:31.714Z,72.32
